sensor_id;sensor_type;location;lat;lon;timestamp;P1;durP1;ratioP1;P2;durP2;ratioP2
59109;SDS011;44895;47.438;18.978;2022-09-27T00:01:29;31.23;;;13.25;;
59109;SDS011;44895;47.438;18.978;2022-09-27T00:04:33;14.18;;;10.57;;
59109;SDS011;44895;47.438;18.978;2022-09-27T00:07:37;15.02;;;10.70;;
59109;SDS011;44895;47.438;18.978;2022-09-27T00:10:40;16.75;;;10.52;;
59109;SDS011;44895;47.438;18.978;2022-09-27T00:13:43;15.75;;;9.73;;
59109;SDS011;44895;47.438;18.978;2022-09-27T00:16:47;15.93;;;11.48;;
59109;SDS011;44895;47.438;18.978;2022-09-27T00:19:50;15.90;;;10.18;;
59109;SDS011;44895;47.438;18.978;2022-09-27T00:22:54;11.77;;;8.13;;
59109;SDS011;44895;47.438;18.978;2022-09-27T00:25:57;14.38;;;9.57;;
59109;SDS011;44895;47.438;18.978;2022-09-27T00:29:01;18.33;;;10.65;;
59109;SDS011;44895;47.438;18.978;2022-09-27T00:32:05;14.10;;;9.98;;
59109;SDS011;44895;47.438;18.978;2022-09-27T00:35:08;14.77;;;10.05;;
59109;SDS011;44895;47.438;18.978;2022-09-27T00:38:12;14.60;;;8.82;;
59109;SDS011;44895;47.438;18.978;2022-09-27T00:41:18;13.80;;;9.45;;
59109;SDS011;44895;47.438;18.978;2022-09-27T00:47:38;13.23;;;10.38;;
59109;SDS011;44895;47.438;18.978;2022-09-27T00:50:43;16.00;;;9.50;;
59109;SDS011;44895;47.438;18.978;2022-09-27T00:53:49;15.60;;;8.68;;
59109;SDS011;44895;47.438;18.978;2022-09-27T00:56:54;12.77;;;8.55;;
59109;SDS011;44895;47.438;18.978;2022-09-27T01:00:00;14.38;;;8.52;;
59109;SDS011;44895;47.438;18.978;2022-09-27T01:03:03;13.25;;;8.90;;
59109;SDS011;44895;47.438;18.978;2022-09-27T01:06:07;13.75;;;9.50;;
59109;SDS011;44895;47.438;18.978;2022-09-27T01:09:11;12.50;;;9.05;;
59109;SDS011;44895;47.438;18.978;2022-09-27T01:12:37;13.55;;;9.70;;
59109;SDS011;44895;47.438;18.978;2022-09-27T01:18:58;11.90;;;8.70;;
59109;SDS011;44895;47.438;18.978;2022-09-27T01:22:15;12.85;;;8.85;;
59109;SDS011;44895;47.438;18.978;2022-09-27T01:31:51;12.40;;;8.05;;
59109;SDS011;44895;47.438;18.978;2022-09-27T01:35:02;18.30;;;9.23;;
59109;SDS011;44895;47.438;18.978;2022-09-27T01:48:09;11.65;;;8.27;;
59109;SDS011;44895;47.438;18.978;2022-09-27T01:51:32;11.05;;;6.80;;
59109;SDS011;44895;47.438;18.978;2022-09-27T01:54:39;13.50;;;7.20;;
59109;SDS011;44895;47.438;18.978;2022-09-27T01:58:09;10.65;;;7.50;;
59109;SDS011;44895;47.438;18.978;2022-09-27T02:01:14;17.63;;;8.07;;
59109;SDS011;44895;47.438;18.978;2022-09-27T02:04:20;11.73;;;7.90;;
59109;SDS011;44895;47.438;18.978;2022-09-27T02:08:00;11.90;;;8.80;;
59109;SDS011;44895;47.438;18.978;2022-09-27T02:11:07;12.45;;;8.15;;
59109;SDS011;44895;47.438;18.978;2022-09-27T02:14:16;14.02;;;7.85;;
59109;SDS011;44895;47.438;18.978;2022-09-27T02:20:54;12.85;;;8.82;;
59109;SDS011;44895;47.438;18.978;2022-09-27T02:24:00;13.93;;;8.57;;
59109;SDS011;44895;47.438;18.978;2022-09-27T02:27:08;13.80;;;7.72;;
59109;SDS011;44895;47.438;18.978;2022-09-27T02:30:14;12.20;;;8.18;;
59109;SDS011;44895;47.438;18.978;2022-09-27T02:33:21;11.45;;;8.30;;
59109;SDS011;44895;47.438;18.978;2022-09-27T02:36:25;13.70;;;9.60;;
59109;SDS011;44895;47.438;18.978;2022-09-27T02:39:28;13.88;;;8.75;;
59109;SDS011;44895;47.438;18.978;2022-09-27T02:42:40;15.88;;;9.75;;
59109;SDS011;44895;47.438;18.978;2022-09-27T02:52:11;18.63;;;11.45;;
59109;SDS011;44895;47.438;18.978;2022-09-27T03:02:09;14.45;;;10.43;;
59109;SDS011;44895;47.438;18.978;2022-09-27T03:08:27;18.13;;;10.77;;
59109;SDS011;44895;47.438;18.978;2022-09-27T03:11:32;18.23;;;11.90;;
59109;SDS011;44895;47.438;18.978;2022-09-27T03:14:36;16.90;;;11.40;;
59109;SDS011;44895;47.438;18.978;2022-09-27T03:17:54;20.85;;;13.30;;
59109;SDS011;44895;47.438;18.978;2022-09-27T03:21:32;19.85;;;9.55;;
59109;SDS011;44895;47.438;18.978;2022-09-27T03:24:36;17.60;;;11.38;;
59109;SDS011;44895;47.438;18.978;2022-09-27T03:27:40;15.73;;;11.20;;
59109;SDS011;44895;47.438;18.978;2022-09-27T03:30:44;17.27;;;11.00;;
59109;SDS011;44895;47.438;18.978;2022-09-27T03:33:49;18.75;;;12.30;;
59109;SDS011;44895;47.438;18.978;2022-09-27T03:36:53;17.30;;;11.93;;
59109;SDS011;44895;47.438;18.978;2022-09-27T03:39:56;18.08;;;12.52;;
59109;SDS011;44895;47.438;18.978;2022-09-27T03:43:00;26.55;;;13.15;;
59109;SDS011;44895;47.438;18.978;2022-09-27T03:46:03;25.15;;;14.90;;
59109;SDS011;44895;47.438;18.978;2022-09-27T03:49:07;21.75;;;13.98;;
59109;SDS011;44895;47.438;18.978;2022-09-27T03:52:10;23.35;;;14.13;;
59109;SDS011;44895;47.438;18.978;2022-09-27T03:55:14;22.67;;;12.48;;
59109;SDS011;44895;47.438;18.978;2022-09-27T03:58:17;18.17;;;13.57;;
59109;SDS011;44895;47.438;18.978;2022-09-27T04:01:21;20.02;;;12.27;;
59109;SDS011;44895;47.438;18.978;2022-09-27T04:04:29;26.00;;;13.13;;
59109;SDS011;44895;47.438;18.978;2022-09-27T04:07:33;22.52;;;14.07;;
59109;SDS011;44895;47.438;18.978;2022-09-27T04:10:37;19.73;;;13.10;;
59109;SDS011;44895;47.438;18.978;2022-09-27T04:13:40;17.45;;;12.60;;
59109;SDS011;44895;47.438;18.978;2022-09-27T04:16:44;21.02;;;14.32;;
59109;SDS011;44895;47.438;18.978;2022-09-27T04:20:05;18.90;;;9.80;;
59109;SDS011;44895;47.438;18.978;2022-09-27T04:23:10;21.95;;;12.32;;
59109;SDS011;44895;47.438;18.978;2022-09-27T04:26:17;19.17;;;11.87;;
59109;SDS011;44895;47.438;18.978;2022-09-27T04:29:26;16.63;;;10.38;;
59109;SDS011;44895;47.438;18.978;2022-09-27T04:32:31;19.77;;;11.52;;
59109;SDS011;44895;47.438;18.978;2022-09-27T04:35:53;21.33;;;12.65;;
59109;SDS011;44895;47.438;18.978;2022-09-27T04:39:19;21.63;;;13.25;;
59109;SDS011;44895;47.438;18.978;2022-09-27T04:42:23;16.15;;;10.40;;
59109;SDS011;44895;47.438;18.978;2022-09-27T04:45:26;24.33;;;13.50;;
59109;SDS011;44895;47.438;18.978;2022-09-27T04:48:29;17.77;;;12.65;;
59109;SDS011;44895;47.438;18.978;2022-09-27T04:51:33;25.13;;;13.25;;
59109;SDS011;44895;47.438;18.978;2022-09-27T04:54:37;23.48;;;14.30;;
59109;SDS011;44895;47.438;18.978;2022-09-27T04:57:48;20.90;;;12.82;;
59109;SDS011;44895;47.438;18.978;2022-09-27T05:00:52;22.77;;;14.15;;
59109;SDS011;44895;47.438;18.978;2022-09-27T05:04:30;24.33;;;13.32;;
59109;SDS011;44895;47.438;18.978;2022-09-27T05:07:34;24.35;;;15.77;;
59109;SDS011;44895;47.438;18.978;2022-09-27T05:10:41;24.77;;;15.90;;
59109;SDS011;44895;47.438;18.978;2022-09-27T05:13:44;30.25;;;17.98;;
59109;SDS011;44895;47.438;18.978;2022-09-27T05:16:48;29.10;;;17.02;;
59109;SDS011;44895;47.438;18.978;2022-09-27T05:20:10;28.33;;;19.38;;
59109;SDS011;44895;47.438;18.978;2022-09-27T05:23:29;24.48;;;17.20;;
59109;SDS011;44895;47.438;18.978;2022-09-27T05:26:32;31.88;;;18.33;;
59109;SDS011;44895;47.438;18.978;2022-09-27T05:29:35;29.25;;;18.92;;
59109;SDS011;44895;47.438;18.978;2022-09-27T05:32:44;25.15;;;18.88;;
59109;SDS011;44895;47.438;18.978;2022-09-27T05:36:02;33.25;;;19.50;;
59109;SDS011;44895;47.438;18.978;2022-09-27T05:39:07;27.05;;;20.85;;
59109;SDS011;44895;47.438;18.978;2022-09-27T05:42:11;27.02;;;19.95;;
59109;SDS011;44895;47.438;18.978;2022-09-27T05:45:18;28.13;;;19.98;;
59109;SDS011;44895;47.438;18.978;2022-09-27T05:48:22;27.38;;;18.45;;
59109;SDS011;44895;47.438;18.978;2022-09-27T05:51:32;30.05;;;19.13;;
59109;SDS011;44895;47.438;18.978;2022-09-27T05:54:36;27.60;;;19.55;;
59109;SDS011;44895;47.438;18.978;2022-09-27T05:57:40;29.02;;;22.35;;
59109;SDS011;44895;47.438;18.978;2022-09-27T06:00:45;25.08;;;18.25;;
59109;SDS011;44895;47.438;18.978;2022-09-27T06:04:11;25.52;;;19.35;;
59109;SDS011;44895;47.438;18.978;2022-09-27T06:07:43;25.63;;;17.90;;
59109;SDS011;44895;47.438;18.978;2022-09-27T06:10:59;26.33;;;19.73;;
59109;SDS011;44895;47.438;18.978;2022-09-27T06:14:02;27.00;;;19.13;;
59109;SDS011;44895;47.438;18.978;2022-09-27T06:17:10;29.52;;;17.88;;
59109;SDS011;44895;47.438;18.978;2022-09-27T06:20:16;29.08;;;19.65;;
59109;SDS011;44895;47.438;18.978;2022-09-27T06:23:21;26.98;;;21.27;;
59109;SDS011;44895;47.438;18.978;2022-09-27T06:26:26;27.75;;;18.35;;
59109;SDS011;44895;47.438;18.978;2022-09-27T06:29:46;26.20;;;18.23;;
59109;SDS011;44895;47.438;18.978;2022-09-27T06:33:00;27.85;;;19.77;;
59109;SDS011;44895;47.438;18.978;2022-09-27T06:36:15;29.40;;;20.13;;
59109;SDS011;44895;47.438;18.978;2022-09-27T06:39:19;26.85;;;18.13;;
59109;SDS011;44895;47.438;18.978;2022-09-27T06:42:38;24.42;;;18.13;;
59109;SDS011;44895;47.438;18.978;2022-09-27T06:45:54;25.73;;;18.80;;
59109;SDS011;44895;47.438;18.978;2022-09-27T06:49:07;30.00;;;20.73;;
59109;SDS011;44895;47.438;18.978;2022-09-27T06:52:10;23.77;;;17.92;;
59109;SDS011;44895;47.438;18.978;2022-09-27T06:55:14;25.38;;;18.25;;
59109;SDS011;44895;47.438;18.978;2022-09-27T06:58:18;24.48;;;21.17;;
59109;SDS011;44895;47.438;18.978;2022-09-27T07:02:00;25.10;;;17.45;;
59109;SDS011;44895;47.438;18.978;2022-09-27T07:05:30;24.13;;;16.58;;
59109;SDS011;44895;47.438;18.978;2022-09-27T07:08:43;30.85;;;21.20;;
59109;SDS011;44895;47.438;18.978;2022-09-27T07:11:47;20.85;;;17.35;;
59109;SDS011;44895;47.438;18.978;2022-09-27T07:14:51;26.00;;;17.65;;
59109;SDS011;44895;47.438;18.978;2022-09-27T07:17:55;19.35;;;16.23;;
59109;SDS011;44895;47.438;18.978;2022-09-27T07:21:01;19.38;;;15.30;;
59109;SDS011;44895;47.438;18.978;2022-09-27T07:24:06;19.80;;;14.80;;
59109;SDS011;44895;47.438;18.978;2022-09-27T07:27:09;19.08;;;15.85;;
59109;SDS011;44895;47.438;18.978;2022-09-27T07:30:13;20.15;;;15.52;;
59109;SDS011;44895;47.438;18.978;2022-09-27T07:33:17;20.85;;;16.38;;
59109;SDS011;44895;47.438;18.978;2022-09-27T07:36:21;22.55;;;16.58;;
59109;SDS011;44895;47.438;18.978;2022-09-27T07:39:24;20.58;;;16.38;;
59109;SDS011;44895;47.438;18.978;2022-09-27T07:42:28;20.90;;;14.82;;
59109;SDS011;44895;47.438;18.978;2022-09-27T07:45:32;22.65;;;16.85;;
59109;SDS011;44895;47.438;18.978;2022-09-27T07:48:58;21.92;;;16.85;;
59109;SDS011;44895;47.438;18.978;2022-09-27T07:52:20;21.95;;;18.73;;
59109;SDS011;44895;47.438;18.978;2022-09-27T07:55:50;25.52;;;16.92;;
59109;SDS011;44895;47.438;18.978;2022-09-27T07:58:57;26.33;;;16.95;;
59109;SDS011;44895;47.438;18.978;2022-09-27T08:02:01;22.40;;;16.38;;
59109;SDS011;44895;47.438;18.978;2022-09-27T08:05:05;18.63;;;13.70;;
59109;SDS011;44895;47.438;18.978;2022-09-27T08:08:08;19.30;;;15.77;;
59109;SDS011;44895;47.438;18.978;2022-09-27T08:11:12;18.13;;;13.68;;
59109;SDS011;44895;47.438;18.978;2022-09-27T08:14:17;17.55;;;14.00;;
59109;SDS011;44895;47.438;18.978;2022-09-27T08:17:24;25.77;;;15.23;;
59109;SDS011;44895;47.438;18.978;2022-09-27T08:20:56;20.42;;;15.55;;
59109;SDS011;44895;47.438;18.978;2022-09-27T08:24:12;21.27;;;14.63;;
59109;SDS011;44895;47.438;18.978;2022-09-27T08:27:54;20.23;;;13.90;;
59109;SDS011;44895;47.438;18.978;2022-09-27T08:31:09;25.65;;;16.13;;
59109;SDS011;44895;47.438;18.978;2022-09-27T08:34:13;19.48;;;15.25;;
59109;SDS011;44895;47.438;18.978;2022-09-27T08:37:17;22.85;;;16.10;;
59109;SDS011;44895;47.438;18.978;2022-09-27T08:40:20;21.92;;;16.48;;
59109;SDS011;44895;47.438;18.978;2022-09-27T08:43:38;24.15;;;16.80;;
59109;SDS011;44895;47.438;18.978;2022-09-27T08:53:45;21.63;;;17.42;;
59109;SDS011;44895;47.438;18.978;2022-09-27T08:56:51;24.67;;;18.48;;
59109;SDS011;44895;47.438;18.978;2022-09-27T09:03:01;23.60;;;17.25;;
59109;SDS011;44895;47.438;18.978;2022-09-27T09:12:56;22.75;;;16.10;;
59109;SDS011;44895;47.438;18.978;2022-09-27T09:23:02;21.40;;;18.00;;
59109;SDS011;44895;47.438;18.978;2022-09-27T09:35:52;21.33;;;14.52;;
59109;SDS011;44895;47.438;18.978;2022-09-27T09:45:15;20.65;;;16.48;;
59109;SDS011;44895;47.438;18.978;2022-09-27T09:51:50;25.73;;;14.98;;
59109;SDS011;44895;47.438;18.978;2022-09-27T09:55:03;22.00;;;16.02;;
59109;SDS011;44895;47.438;18.978;2022-09-27T09:58:19;24.08;;;16.55;;
59109;SDS011;44895;47.438;18.978;2022-09-27T10:01:39;24.42;;;17.40;;
59109;SDS011;44895;47.438;18.978;2022-09-27T10:04:43;21.02;;;17.40;;
59109;SDS011;44895;47.438;18.978;2022-09-27T10:07:47;23.75;;;15.95;;
59109;SDS011;44895;47.438;18.978;2022-09-27T10:10:52;21.25;;;16.65;;
59109;SDS011;44895;47.438;18.978;2022-09-27T10:14:17;23.52;;;16.02;;
59109;SDS011;44895;47.438;18.978;2022-09-27T10:17:24;24.23;;;16.73;;
59109;SDS011;44895;47.438;18.978;2022-09-27T10:20:50;19.58;;;15.60;;
59109;SDS011;44895;47.438;18.978;2022-09-27T10:24:01;22.73;;;14.63;;
59109;SDS011;44895;47.438;18.978;2022-09-27T10:27:38;17.42;;;13.63;;
59109;SDS011;44895;47.438;18.978;2022-09-27T10:30:47;21.55;;;16.35;;
59109;SDS011;44895;47.438;18.978;2022-09-27T10:33:58;21.58;;;16.27;;
59109;SDS011;44895;47.438;18.978;2022-09-27T10:37:05;19.63;;;15.57;;
59109;SDS011;44895;47.438;18.978;2022-09-27T10:40:24;19.38;;;13.57;;
59109;SDS011;44895;47.438;18.978;2022-09-27T10:43:32;20.27;;;15.32;;
59109;SDS011;44895;47.438;18.978;2022-09-27T10:46:51;21.35;;;15.38;;
59109;SDS011;44895;47.438;18.978;2022-09-27T10:50:22;18.98;;;14.45;;
59109;SDS011;44895;47.438;18.978;2022-09-27T10:53:35;19.20;;;13.88;;
59109;SDS011;44895;47.438;18.978;2022-09-27T10:56:52;19.20;;;14.25;;
59109;SDS011;44895;47.438;18.978;2022-09-27T10:59:58;19.63;;;14.38;;
59109;SDS011;44895;47.438;18.978;2022-09-27T11:03:04;24.33;;;16.42;;
59109;SDS011;44895;47.438;18.978;2022-09-27T11:09:22;20.27;;;13.98;;
59109;SDS011;44895;47.438;18.978;2022-09-27T11:12:30;19.25;;;13.73;;
59109;SDS011;44895;47.438;18.978;2022-09-27T11:25:19;15.43;;;11.55;;
59109;SDS011;44895;47.438;18.978;2022-09-27T11:35:12;15.02;;;10.75;;
59109;SDS011;44895;47.438;18.978;2022-09-27T11:38:30;14.70;;;10.73;;
59109;SDS011;44895;47.438;18.978;2022-09-27T11:41:50;13.75;;;10.80;;
59109;SDS011;44895;47.438;18.978;2022-09-27T11:55:03;14.45;;;10.68;;
59109;SDS011;44895;47.438;18.978;2022-09-27T12:01:24;13.15;;;9.10;;
59109;SDS011;44895;47.438;18.978;2022-09-27T12:11:02;14.50;;;9.75;;
59109;SDS011;44895;47.438;18.978;2022-09-27T12:14:18;14.55;;;8.65;;
59109;SDS011;44895;47.438;18.978;2022-09-27T12:17:29;12.07;;;8.02;;
59109;SDS011;44895;47.438;18.978;2022-09-27T12:20:35;18.17;;;10.65;;
59109;SDS011;44895;47.438;18.978;2022-09-27T12:23:44;11.52;;;8.20;;
59109;SDS011;44895;47.438;18.978;2022-09-27T12:27:33;11.07;;;6.65;;
59109;SDS011;44895;47.438;18.978;2022-09-27T12:30:41;10.93;;;7.00;;
59109;SDS011;44895;47.438;18.978;2022-09-27T12:36:51;14.68;;;9.48;;
59109;SDS011;44895;47.438;18.978;2022-09-27T12:40:06;14.60;;;9.27;;
59109;SDS011;44895;47.438;18.978;2022-09-27T12:43:19;13.20;;;7.93;;
59109;SDS011;44895;47.438;18.978;2022-09-27T12:49:58;12.20;;;8.90;;
59109;SDS011;44895;47.438;18.978;2022-09-27T12:53:15;10.63;;;6.63;;
59109;SDS011;44895;47.438;18.978;2022-09-27T12:59:42;14.95;;;8.55;;
59109;SDS011;44895;47.438;18.978;2022-09-27T13:12:27;14.85;;;9.52;;
59109;SDS011;44895;47.438;18.978;2022-09-27T13:15:32;12.10;;;7.45;;
59109;SDS011;44895;47.438;18.978;2022-09-27T13:29:00;10.13;;;5.75;;
59109;SDS011;44895;47.438;18.978;2022-09-27T13:32:22;9.20;;;5.13;;
59109;SDS011;44895;47.438;18.978;2022-09-27T13:42:30;9.27;;;5.88;;
59109;SDS011;44895;47.438;18.978;2022-09-27T13:45:48;9.68;;;5.28;;
59109;SDS011;44895;47.438;18.978;2022-09-27T13:49:12;10.38;;;4.93;;
59109;SDS011;44895;47.438;18.978;2022-09-27T13:52:38;7.97;;;4.38;;
59109;SDS011;44895;47.438;18.978;2022-09-27T13:55:49;10.43;;;5.05;;
59109;SDS011;44895;47.438;18.978;2022-09-27T13:59:15;10.32;;;6.22;;
59109;SDS011;44895;47.438;18.978;2022-09-27T14:02:30;10.60;;;5.13;;
59109;SDS011;44895;47.438;18.978;2022-09-27T14:05:39;6.60;;;2.85;;
59109;SDS011;44895;47.438;18.978;2022-09-27T14:08:45;6.80;;;1.77;;
59109;SDS011;44895;47.438;18.978;2022-09-27T14:11:49;5.75;;;1.35;;
59109;SDS011;44895;47.438;18.978;2022-09-27T14:14:55;4.30;;;1.70;;
59109;SDS011;44895;47.438;18.978;2022-09-27T14:18:00;5.47;;;2.35;;
59109;SDS011;44895;47.438;18.978;2022-09-27T14:21:13;8.68;;;4.03;;
59109;SDS011;44895;47.438;18.978;2022-09-27T14:24:30;8.75;;;4.10;;
59109;SDS011;44895;47.438;18.978;2022-09-27T14:27:39;5.47;;;2.28;;
59109;SDS011;44895;47.438;18.978;2022-09-27T14:31:19;3.50;;;1.58;;
59109;SDS011;44895;47.438;18.978;2022-09-27T14:34:44;6.95;;;1.13;;
59109;SDS011;44895;47.438;18.978;2022-09-27T14:37:50;4.63;;;2.10;;
59109;SDS011;44895;47.438;18.978;2022-09-27T14:40:57;6.68;;;2.00;;
59109;SDS011;44895;47.438;18.978;2022-09-27T14:44:00;2.63;;;0.98;;
59109;SDS011;44895;47.438;18.978;2022-09-27T14:47:23;4.93;;;1.20;;
59109;SDS011;44895;47.438;18.978;2022-09-27T14:50:27;2.08;;;0.75;;
59109;SDS011;44895;47.438;18.978;2022-09-27T14:53:32;8.23;;;4.40;;
59109;SDS011;44895;47.438;18.978;2022-09-27T14:56:36;5.95;;;1.95;;
59109;SDS011;44895;47.438;18.978;2022-09-27T14:59:40;3.35;;;1.27;;
59109;SDS011;44895;47.438;18.978;2022-09-27T15:02:47;4.22;;;1.50;;
59109;SDS011;44895;47.438;18.978;2022-09-27T15:05:51;2.70;;;1.00;;
59109;SDS011;44895;47.438;18.978;2022-09-27T15:08:55;3.75;;;1.33;;
59109;SDS011;44895;47.438;18.978;2022-09-27T15:11:58;1.85;;;0.85;;
59109;SDS011;44895;47.438;18.978;2022-09-27T15:15:03;1.58;;;0.60;;
59109;SDS011;44895;47.438;18.978;2022-09-27T15:21:34;5.88;;;1.25;;
59109;SDS011;44895;47.438;18.978;2022-09-27T15:24:45;3.95;;;1.10;;
59109;SDS011;44895;47.438;18.978;2022-09-27T15:27:50;2.55;;;1.15;;
59109;SDS011;44895;47.438;18.978;2022-09-27T15:30:56;1.65;;;0.55;;
59109;SDS011;44895;47.438;18.978;2022-09-27T15:34:00;1.77;;;0.50;;
59109;SDS011;44895;47.438;18.978;2022-09-27T15:37:04;1.80;;;0.63;;
59109;SDS011;44895;47.438;18.978;2022-09-27T15:46:39;1.80;;;0.50;;
59109;SDS011;44895;47.438;18.978;2022-09-27T15:49:44;3.47;;;0.70;;
59109;SDS011;44895;47.438;18.978;2022-09-27T15:52:48;1.95;;;0.55;;
59109;SDS011;44895;47.438;18.978;2022-09-27T15:55:53;1.90;;;0.45;;
59109;SDS011;44895;47.438;18.978;2022-09-27T15:58:56;3.33;;;1.20;;
59109;SDS011;44895;47.438;18.978;2022-09-27T16:02:01;2.30;;;0.80;;
59109;SDS011;44895;47.438;18.978;2022-09-27T16:05:05;1.95;;;0.47;;
59109;SDS011;44895;47.438;18.978;2022-09-27T16:08:09;2.63;;;0.82;;
59109;SDS011;44895;47.438;18.978;2022-09-27T16:11:14;4.38;;;0.50;;
59109;SDS011;44895;47.438;18.978;2022-09-27T16:14:18;1.65;;;0.50;;
59109;SDS011;44895;47.438;18.978;2022-09-27T16:17:21;1.48;;;0.57;;
59109;SDS011;44895;47.438;18.978;2022-09-27T16:20:25;1.83;;;0.95;;
59109;SDS011;44895;47.438;18.978;2022-09-27T16:23:29;0.73;;;0.30;;
59109;SDS011;44895;47.438;18.978;2022-09-27T16:26:32;2.53;;;0.60;;
59109;SDS011;44895;47.438;18.978;2022-09-27T16:29:35;2.60;;;1.48;;
59109;SDS011;44895;47.438;18.978;2022-09-27T16:32:46;3.67;;;1.02;;
59109;SDS011;44895;47.438;18.978;2022-09-27T16:35:50;3.00;;;0.70;;
59109;SDS011;44895;47.438;18.978;2022-09-27T16:38:53;4.05;;;1.02;;
59109;SDS011;44895;47.438;18.978;2022-09-27T16:41:57;3.63;;;1.75;;
59109;SDS011;44895;47.438;18.978;2022-09-27T16:45:03;4.35;;;1.10;;
59109;SDS011;44895;47.438;18.978;2022-09-27T16:48:06;1.75;;;0.60;;
59109;SDS011;44895;47.438;18.978;2022-09-27T16:51:14;1.80;;;0.60;;
59109;SDS011;44895;47.438;18.978;2022-09-27T16:54:36;4.03;;;0.90;;
59109;SDS011;44895;47.438;18.978;2022-09-27T16:57:39;3.40;;;0.90;;
59109;SDS011;44895;47.438;18.978;2022-09-27T17:00:42;3.53;;;1.20;;
59109;SDS011;44895;47.438;18.978;2022-09-27T17:03:48;4.40;;;1.08;;
59109;SDS011;44895;47.438;18.978;2022-09-27T17:06:52;2.55;;;1.05;;
59109;SDS011;44895;47.438;18.978;2022-09-27T17:09:55;4.20;;;1.48;;
59109;SDS011;44895;47.438;18.978;2022-09-27T17:12:59;5.57;;;1.30;;
59109;SDS011;44895;47.438;18.978;2022-09-27T17:16:04;3.95;;;1.38;;
59109;SDS011;44895;47.438;18.978;2022-09-27T17:19:07;2.67;;;1.35;;
59109;SDS011;44895;47.438;18.978;2022-09-27T17:22:11;6.43;;;3.58;;
59109;SDS011;44895;47.438;18.978;2022-09-27T17:25:14;1.92;;;0.90;;
59109;SDS011;44895;47.438;18.978;2022-09-27T17:28:18;3.65;;;1.27;;
59109;SDS011;44895;47.438;18.978;2022-09-27T17:31:22;2.75;;;0.88;;
59109;SDS011;44895;47.438;18.978;2022-09-27T17:34:26;4.18;;;1.10;;
59109;SDS011;44895;47.438;18.978;2022-09-27T17:37:30;3.90;;;1.30;;
59109;SDS011;44895;47.438;18.978;2022-09-27T17:40:33;4.50;;;1.48;;
59109;SDS011;44895;47.438;18.978;2022-09-27T17:43:37;7.40;;;2.20;;
59109;SDS011;44895;47.438;18.978;2022-09-27T17:46:42;4.13;;;1.42;;
59109;SDS011;44895;47.438;18.978;2022-09-27T17:49:45;4.88;;;1.95;;
59109;SDS011;44895;47.438;18.978;2022-09-27T17:53:07;5.20;;;1.80;;
59109;SDS011;44895;47.438;18.978;2022-09-27T17:56:11;4.90;;;1.92;;
59109;SDS011;44895;47.438;18.978;2022-09-27T17:59:15;5.20;;;1.90;;
59109;SDS011;44895;47.438;18.978;2022-09-27T18:02:19;3.65;;;1.40;;
59109;SDS011;44895;47.438;18.978;2022-09-27T18:05:22;8.00;;;1.77;;
59109;SDS011;44895;47.438;18.978;2022-09-27T18:08:27;3.70;;;1.40;;
59109;SDS011;44895;47.438;18.978;2022-09-27T18:11:32;3.90;;;1.48;;
59109;SDS011;44895;47.438;18.978;2022-09-27T18:14:35;4.47;;;2.17;;
59109;SDS011;44895;47.438;18.978;2022-09-27T18:17:39;4.70;;;1.50;;
59109;SDS011;44895;47.438;18.978;2022-09-27T18:20:42;7.78;;;1.83;;
59109;SDS011;44895;47.438;18.978;2022-09-27T18:23:47;4.75;;;2.20;;
59109;SDS011;44895;47.438;18.978;2022-09-27T18:26:51;4.72;;;1.67;;
59109;SDS011;44895;47.438;18.978;2022-09-27T18:29:56;7.03;;;2.17;;
59109;SDS011;44895;47.438;18.978;2022-09-27T18:32:59;4.00;;;1.60;;
59109;SDS011;44895;47.438;18.978;2022-09-27T18:36:22;5.35;;;2.40;;
59109;SDS011;44895;47.438;18.978;2022-09-27T18:39:25;5.47;;;2.55;;
59109;SDS011;44895;47.438;18.978;2022-09-27T18:42:29;6.72;;;2.17;;
59109;SDS011;44895;47.438;18.978;2022-09-27T18:45:36;5.10;;;2.00;;
59109;SDS011;44895;47.438;18.978;2022-09-27T18:48:40;5.85;;;2.20;;
59109;SDS011;44895;47.438;18.978;2022-09-27T18:51:43;6.68;;;2.85;;
59109;SDS011;44895;47.438;18.978;2022-09-27T18:54:48;5.95;;;2.10;;
59109;SDS011;44895;47.438;18.978;2022-09-27T18:57:52;5.35;;;2.00;;
59109;SDS011;44895;47.438;18.978;2022-09-27T19:00:59;5.75;;;2.13;;
59109;SDS011;44895;47.438;18.978;2022-09-27T19:04:03;6.13;;;2.67;;
59109;SDS011;44895;47.438;18.978;2022-09-27T19:07:06;6.15;;;2.45;;
59109;SDS011;44895;47.438;18.978;2022-09-27T19:10:10;4.68;;;1.65;;
59109;SDS011;44895;47.438;18.978;2022-09-27T19:13:13;5.32;;;2.28;;
59109;SDS011;44895;47.438;18.978;2022-09-27T19:16:18;6.53;;;2.70;;
59109;SDS011;44895;47.438;18.978;2022-09-27T19:19:22;6.72;;;2.13;;
59109;SDS011;44895;47.438;18.978;2022-09-27T19:22:27;6.72;;;2.42;;
59109;SDS011;44895;47.438;18.978;2022-09-27T19:25:30;8.88;;;3.80;;
59109;SDS011;44895;47.438;18.978;2022-09-27T19:28:34;6.85;;;2.85;;
59109;SDS011;44895;47.438;18.978;2022-09-27T19:31:38;8.57;;;3.85;;
59109;SDS011;44895;47.438;18.978;2022-09-27T19:34:42;7.82;;;3.47;;
59109;SDS011;44895;47.438;18.978;2022-09-27T19:37:45;6.60;;;2.92;;
59109;SDS011;44895;47.438;18.978;2022-09-27T19:40:52;7.65;;;3.08;;
59109;SDS011;44895;47.438;18.978;2022-09-27T19:43:56;6.72;;;2.85;;
59109;SDS011;44895;47.438;18.978;2022-09-27T19:47:00;8.85;;;2.63;;
59109;SDS011;44895;47.438;18.978;2022-09-27T19:50:03;6.95;;;2.70;;
59109;SDS011;44895;47.438;18.978;2022-09-27T19:53:07;7.82;;;3.38;;
59109;SDS011;44895;47.438;18.978;2022-09-27T19:56:10;6.35;;;2.92;;
59109;SDS011;44895;47.438;18.978;2022-09-27T19:59:33;5.50;;;2.60;;
59109;SDS011;44895;47.438;18.978;2022-09-27T20:02:37;7.45;;;3.03;;
59109;SDS011;44895;47.438;18.978;2022-09-27T20:05:39;6.55;;;3.15;;
59109;SDS011;44895;47.438;18.978;2022-09-27T20:08:43;5.25;;;2.83;;
59109;SDS011;44895;47.438;18.978;2022-09-27T20:11:47;8.00;;;3.83;;
59109;SDS011;44895;47.438;18.978;2022-09-27T20:14:50;6.45;;;3.15;;
59109;SDS011;44895;47.438;18.978;2022-09-27T20:17:53;7.38;;;2.88;;
59109;SDS011;44895;47.438;18.978;2022-09-27T20:20:58;6.80;;;3.85;;
59109;SDS011;44895;47.438;18.978;2022-09-27T20:24:02;7.50;;;3.60;;
59109;SDS011;44895;47.438;18.978;2022-09-27T20:27:06;8.00;;;4.10;;
59109;SDS011;44895;47.438;18.978;2022-09-27T20:30:09;8.00;;;3.90;;
59109;SDS011;44895;47.438;18.978;2022-09-27T20:33:13;7.07;;;3.42;;
59109;SDS011;44895;47.438;18.978;2022-09-27T20:36:36;5.43;;;2.25;;
59109;SDS011;44895;47.438;18.978;2022-09-27T20:39:40;4.93;;;2.03;;
59109;SDS011;44895;47.438;18.978;2022-09-27T20:42:43;6.88;;;2.78;;
59109;SDS011;44895;47.438;18.978;2022-09-27T20:45:46;5.85;;;2.60;;
59109;SDS011;44895;47.438;18.978;2022-09-27T20:48:57;7.20;;;3.17;;
59109;SDS011;44895;47.438;18.978;2022-09-27T20:52:01;7.00;;;3.30;;
59109;SDS011;44895;47.438;18.978;2022-09-27T20:55:04;6.63;;;2.88;;
59109;SDS011;44895;47.438;18.978;2022-09-27T20:58:08;5.88;;;2.85;;
59109;SDS011;44895;47.438;18.978;2022-09-27T21:01:12;8.18;;;3.88;;
59109;SDS011;44895;47.438;18.978;2022-09-27T21:04:16;5.20;;;2.47;;
59109;SDS011;44895;47.438;18.978;2022-09-27T21:07:20;8.98;;;2.83;;
59109;SDS011;44895;47.438;18.978;2022-09-27T21:10:23;6.22;;;2.58;;
59109;SDS011;44895;47.438;18.978;2022-09-27T21:13:26;6.00;;;2.65;;